Terminal Aerodrome Forecast
Issued by NWS St Louis, MO

Home | Current Version | Previous Version | Text Only | Print | Product List | Glossary On
Versions: 1 2 3 4 5 6 7 8 9 10 11 12 13 14 15 16 17 18 19 20 21 22 23
930
FTUS43 KLSX 201734
TAFSTL
TAF
KSTL 201734Z 2018/2124 18009KT P6SM VCSH SCT015 OVC100
     FM202000 19012KT P6SM VCSH OVC035
     FM210000 22008KT P6SM VCTS OVC035CB
     FM210400 27005KT P6SM OVC035
     FM210700 29008KT P6SM OVC200
     FM212100 28011G17KT P6SM SCT050=

USA.gov is the U.S. government's official web portal to all federal, state and local government web resources and services.